Time;durP1;ratioP1;P1;durP2;ratioP2;P2;SDS_P1;SDS_P2;PMS_P1;PMS_P2;Temp;Humidity;BMP_temperature;BMP_pressure;BME280_temperature;BME280_humidity;BME280_pressure;Samples;Min_cycle;Max_cycle;Signal;HPM_P1;HPM_P2
2021/01/11 00:01:27;;;;;;;3.22;1.92;;;-1.30;57.40;;;;;;5060597;28;20025;-68
2021/01/11 00:03:52;;;;;;;3.10;2.15;;;-1.40;57.20;;;;;;5060357;28;20048;-69
2021/01/11 00:06:18;;;;;;;2.58;1.80;;;-1.40;57.20;;;;;;5060248;28;20355;-68
2021/01/11 00:08:45;;;;;;;3.35;2.22;;;-1.40;57.20;;;;;;5060386;28;20032;-68
2021/01/11 00:11:12;;;;;;;3.15;2.13;;;-1.40;57.30;;;;;;5060082;28;20025;-68
2021/01/11 00:13:40;;;;;;;5.60;2.28;;;-1.40;57.10;;;;;;5060328;28;20033;-68
2021/01/11 00:16:05;;;;;;;3.72;2.50;;;-1.40;57.70;;;;;;5060125;28;20016;-68
2021/01/11 00:18:31;;;;;;;2.65;2.30;;;-1.40;58.40;;;;;;5060313;28;20066;-68
2021/01/11 00:20:57;;;;;;;4.25;2.03;;;-1.50;58.60;;;;;;5060004;28;20432;-68
2021/01/11 00:23:22;;;;;;;4.28;2.60;;;-1.50;60.00;;;;;;5060181;28;20033;-68
2021/01/11 00:25:48;;;;;;;3.67;2.40;;;-1.70;61.70;;;;;;5059951;28;20052;-69
2021/01/11 00:28:13;;;;;;;3.67;2.78;;;-1.70;60.90;;;;;;5059885;28;20036;-68
2021/01/11 00:30:39;;;;;;;5.22;2.53;;;-1.80;63.30;;;;;;5058690;28;20021;-68
2021/01/11 00:33:06;;;;;;;4.00;2.30;;;-2.00;63.00;;;;;;5059907;28;20025;-69
2021/01/11 00:35:31;;;;;;;3.05;2.13;;;-2.20;61.80;;;;;;5059661;28;20032;-68
2021/01/11 00:37:57;;;;;;;2.92;1.80;;;-2.10;61.40;;;;;;5059668;28;20397;-68
2021/01/11 00:40:23;;;;;;;3.00;2.08;;;-1.90;60.70;;;;;;5059532;28;20020;-68
2021/01/11 00:42:48;;;;;;;3.28;1.90;;;-1.90;60.20;;;;;;5059558;28;20067;-69
2021/01/11 00:45:14;;;;;;;2.53;1.90;;;-1.80;60.00;;;;;;5059512;28;20051;-68
2021/01/11 00:47:43;;;;;;;3.17;2.10;;;-1.80;59.40;;;;;;5059766;28;20025;-68
2021/01/11 00:50:09;;;;;;;3.70;2.10;;;-1.70;59.50;;;;;;5059527;28;20406;-68
2021/01/11 00:52:36;;;;;;;3.08;1.90;;;-1.70;59.10;;;;;;5059587;28;20029;-68
2021/01/11 00:55:04;;;;;;;3.47;2.15;;;-1.80;58.80;;;;;;5059512;28;20052;-68
2021/01/11 00:57:30;;;;;;;2.55;1.80;;;-1.80;59.10;;;;;;5058201;28;20409;-68
2021/01/11 00:59:56;;;;;;;2.58;1.90;;;-1.70;58.30;;;;;;5059232;28;20025;-68
2021/01/11 01:02:21;;;;;;;3.05;2.10;;;-1.70;58.20;;;;;;5059462;28;20032;-68
2021/01/11 01:04:47;;;;;;;2.90;1.98;;;-1.60;57.00;;;;;;5058064;28;20078;-68
2021/01/11 01:07:12;;;;;;;2.75;1.67;;;-1.50;56.90;;;;;;5058437;28;20033;-68
2021/01/11 01:09:38;;;;;;;2.22;1.58;;;-1.50;57.20;;;;;;5059084;28;20423;-68
2021/01/11 01:12:04;;;;;;;2.80;1.83;;;-1.50;56.30;;;;;;5058969;28;20025;-69
2021/01/11 01:14:30;;;;;;;4.20;1.88;;;-1.40;56.40;;;;;;5059171;28;20021;-69
2021/01/11 01:16:55;;;;;;;2.78;1.80;;;-1.40;56.40;;;;;;5058914;28;20459;-68
2021/01/11 01:19:21;;;;;;;2.75;1.60;;;-1.40;55.60;;;;;;5059193;28;20417;-68
2021/01/11 01:21:47;;;;;;;1.80;1.30;;;-1.40;55.50;;;;;;5059415;28;20307;-68
2021/01/11 01:24:13;;;;;;;2.85;1.63;;;-1.30;55.40;;;;;;5058719;28;20028;-69
2021/01/11 01:26:39;;;;;;;4.05;1.88;;;-1.20;54.70;;;;;;5058718;28;20072;-68
2021/01/11 01:29:04;;;;;;;3.17;1.80;;;-1.20;54.90;;;;;;5058967;28;20080;-68
2021/01/11 01:31:30;;;;;;;2.83;1.70;;;-1.30;55.10;;;;;;5058563;28;20307;-68
2021/01/11 01:33:56;;;;;;;2.55;1.65;;;-1.30;55.50;;;;;;5058614;28;20024;-68
2021/01/11 01:36:21;;;;;;;3.03;1.90;;;-1.30;55.20;;;;;;5058526;28;20385;-68
2021/01/11 01:38:47;;;;;;;3.20;2.00;;;-1.40;56.20;;;;;;5058506;28;20025;-68
2021/01/11 01:41:13;;;;;;;3.42;1.75;;;-1.40;56.50;;;;;;5058486;28;20396;-68
2021/01/11 01:43:39;;;;;;;2.78;1.75;;;-1.40;55.60;;;;;;5057323;28;20025;-68
2021/01/11 01:46:05;;;;;;;3.08;1.75;;;-1.40;55.10;;;;;;5058432;28;20112;-68
2021/01/11 01:48:31;;;;;;;3.85;1.30;;;-1.30;54.60;;;;;;5058346;28;20032;-68
2021/01/11 01:50:57;;;;;;;2.30;1.42;;;-1.30;54.70;;;;;;5058228;28;20033;-68
2021/01/11 01:53:23;;;;;;;2.50;1.70;;;-1.40;55.20;;;;;;5058254;28;20420;-68
2021/01/11 01:55:50;;;;;;;3.40;1.75;;;-1.50;56.00;;;;;;5058596;28;20059;-68
2021/01/11 01:58:17;;;;;;;2.08;1.50;;;-1.50;55.70;;;;;;5058192;28;20440;-68
2021/01/11 02:00:42;;;;;;;2.28;1.50;;;-1.50;56.00;;;;;;5058058;28;20032;-68
2021/01/11 02:03:08;;;;;;;3.38;1.73;;;-1.50;55.90;;;;;;5058121;28;20025;-68
2021/01/11 02:05:34;;;;;;;2.30;1.52;;;-1.50;55.30;;;;;;5058067;28;20029;-68
2021/01/11 02:07:59;;;;;;;2.58;1.30;;;-1.50;55.30;;;;;;5057993;28;20105;-68
2021/01/11 02:10:44;;;;;;;2.65;1.67;;;-1.50;55.60;;;;;;5058160;28;20029;-68
2021/01/11 02:13:15;;;;;;;3.72;1.40;;;-1.50;55.10;;;;;;5058160;28;20043;-68
2021/01/11 02:15:49;;;;;;;2.92;1.60;;;-1.50;55.60;;;;;;5057796;28;20072;-68
2021/01/11 02:18:25;;;;;;;1.70;1.30;;;-1.40;55.00;;;;;;5056897;28;20464;-68
2021/01/11 02:21:07;;;;;;;3.05;1.50;;;-1.40;56.20;;;;;;5057738;28;20032;-68
2021/01/11 02:24:12;;;;;;;2.25;1.42;;;-1.40;56.10;;;;;;5057925;28;20044;-68
2021/01/11 02:26:56;;;;;;;2.90;1.60;;;-1.50;56.00;;;;;;5057404;28;20040;-68
2021/01/11 02:29:52;;;;;;;2.30;1.52;;;-1.50;56.00;;;;;;5057713;28;20068;-68
2021/01/11 02:32:20;;;;;;;2.55;1.55;;;-1.60;55.70;;;;;;5057616;28;20021;-68
2021/01/11 02:34:48;;;;;;;2.97;1.63;;;-1.50;55.70;;;;;;5057362;28;20052;-69
2021/01/11 02:37:15;;;;;;;2.63;1.65;;;-1.60;56.00;;;;;;5057655;28;20041;-68
2021/01/11 02:39:41;;;;;;;2.53;1.45;;;-1.60;55.70;;;;;;5057351;28;20025;-68
2021/01/11 02:42:07;;;;;;;3.38;2.00;;;-1.60;56.20;;;;;;5057358;28;20090;-68
2021/01/11 02:44:32;;;;;;;2.58;1.80;;;-1.70;56.20;;;;;;5057353;28;20029;-68
2021/01/11 02:46:58;;;;;;;4.03;1.50;;;-1.70;56.30;;;;;;5057237;28;20147;-68
2021/01/11 02:49:26;;;;;;;3.17;1.65;;;-1.70;56.10;;;;;;5057425;28;20056;-68
2021/01/11 02:52:20;;;;;;;2.20;1.60;;;-1.80;56.30;;;;;;5057376;28;20039;-68
2021/01/11 02:54:51;;;;;;;2.53;1.58;;;-1.80;55.90;;;;;;5057307;28;20033;-69
2021/01/11 02:57:39;;;;;;;2.50;1.70;;;-1.70;56.10;;;;;;5057066;28;20029;-68
2021/01/11 03:00:07;;;;;;;2.38;1.50;;;-1.80;56.60;;;;;;5057013;28;20086;-69
2021/01/11 03:02:40;;;;;;;2.58;1.60;;;-1.80;56.20;;;;;;5057220;28;20035;-68
2021/01/11 03:05:06;;;;;;;2.40;1.38;;;-1.80;55.90;;;;;;5057201;28;20028;-68
2021/01/11 03:07:32;;;;;;;2.13;1.25;;;-1.70;55.80;;;;;;5057125;28;20025;-69
2021/01/11 03:09:57;;;;;;;3.63;1.70;;;-1.70;55.60;;;;;;5056828;28;20033;-68
2021/01/11 03:12:23;;;;;;;2.50;1.60;;;-1.70;55.20;;;;;;5056683;28;20021;-68
2021/01/11 03:14:49;;;;;;;2.38;1.38;;;-1.70;55.40;;;;;;5056783;28;20104;-68
2021/01/11 03:17:14;;;;;;;2.95;1.58;;;-1.60;55.30;;;;;;5055700;28;20055;-68
2021/01/11 03:19:40;;;;;;;2.17;1.40;;;-1.60;55.20;;;;;;5056955;28;20040;-68
2021/01/11 03:22:05;;;;;;;1.63;1.25;;;-1.60;55.00;;;;;;5056768;28;20074;-68
2021/01/11 03:24:31;;;;;;;2.67;1.65;;;-1.60;55.50;;;;;;5056643;28;20425;-68
2021/01/11 03:27:00;;;;;;;2.53;1.40;;;-1.70;55.70;;;;;;5056491;28;20083;-69
2021/01/11 03:29:26;;;;;;;2.45;1.20;;;-1.70;55.30;;;;;;5056541;28;20032;-68
2021/01/11 03:31:52;;;;;;;2.70;1.45;;;-1.70;55.00;;;;;;5056494;28;20025;-68
2021/01/11 03:34:18;;;;;;;4.03;1.50;;;-1.60;54.70;;;;;;5056722;28;20159;-69
2021/01/11 03:36:45;;;;;;;2.08;1.27;;;-1.60;55.30;;;;;;5057213;28;20314;-69
2021/01/11 03:39:12;;;;;;;2.03;1.42;;;-1.60;55.30;;;;;;5056499;28;20025;-68
2021/01/11 03:41:40;;;;;;;1.90;1.55;;;-1.60;54.50;;;;;;5056499;28;20032;-68
2021/01/11 03:44:07;;;;;;;2.25;1.50;;;-1.60;55.10;;;;;;5056423;28;20023;-69
2021/01/11 03:46:33;;;;;;;1.35;0.90;;;-1.60;54.90;;;;;;5057029;28;20029;-68
2021/01/11 03:48:59;;;;;;;2.17;1.48;;;-1.60;54.90;;;;;;5056676;28;20109;-68
2021/01/11 03:51:25;;;;;;;2.20;1.50;;;-1.60;54.60;;;;;;5056597;28;20436;-68
2021/01/11 03:53:51;;;;;;;3.55;1.50;;;-1.70;55.00;;;;;;5056402;28;20096;-68
2021/01/11 03:56:17;;;;;;;2.47;1.70;;;-1.70;55.70;;;;;;5056270;28;20057;-68
2021/01/11 03:58:43;;;;;;;1.85;1.27;;;-1.80;55.00;;;;;;5056572;28;20051;-68
2021/01/11 04:01:09;;;;;;;2.95;1.65;;;-1.80;54.60;;;;;;5056368;28;20025;-68
2021/01/11 04:03:35;;;;;;;1.83;1.15;;;-1.70;54.80;;;;;;5056298;28;20100;-68
2021/01/11 04:06:01;;;;;;;1.77;1.38;;;-1.80;56.50;;;;;;5056408;28;20060;-68
2021/01/11 04:08:27;;;;;;;2.75;1.33;;;-2.00;57.10;;;;;;5056410;28;20457;-69
2021/01/11 04:10:53;;;;;;;2.00;1.40;;;-2.10;57.60;;;;;;5056416;28;20029;-68
2021/01/11 04:13:19;;;;;;;2.05;1.40;;;-2.10;57.00;;;;;;5056183;28;20104;-69
2021/01/11 04:15:45;;;;;;;3.15;1.88;;;-2.10;57.00;;;;;;5055132;28;20021;-69
2021/01/11 04:18:12;;;;;;;2.33;1.85;;;-2.10;58.20;;;;;;5056219;28;20026;-69
2021/01/11 04:20:38;;;;;;;2.17;1.50;;;-2.20;58.60;;;;;;5056118;28;20090;-68
2021/01/11 04:23:04;;;;;;;1.88;1.30;;;-2.10;56.80;;;;;;5056089;28;20021;-68
2021/01/11 04:25:30;;;;;;;2.47;1.52;;;-2.00;56.80;;;;;;5056150;28;20038;-68
2021/01/11 04:27:57;;;;;;;2.65;1.63;;;-2.00;57.80;;;;;;5055077;28;20035;-68
2021/01/11 04:30:23;;;;;;;3.38;1.95;;;-2.00;58.20;;;;;;5056113;28;20024;-69
2021/01/11 04:32:49;;;;;;;2.10;1.42;;;-2.10;58.70;;;;;;5054940;28;20329;-68
2021/01/11 04:35:15;;;;;;;2.72;1.85;;;-2.10;59.10;;;;;;5056229;28;20017;-68
2021/01/11 04:37:42;;;;;;;3.40;2.53;;;-2.20;59.60;;;;;;5056257;28;20025;-68
2021/01/11 04:40:09;;;;;;;3.75;2.42;;;-2.20;60.50;;;;;;5055989;28;20023;-68
2021/01/11 04:42:41;;;;;;;3.55;1.90;;;-2.30;61.30;;;;;;5059354;28;20053;-68
2021/01/11 04:45:08;;;;;;;2.78;1.88;;;-2.40;59.60;;;;;;5059653;28;20454;-68
2021/01/11 04:47:35;;;;;;;2.83;1.50;;;-2.40;59.70;;;;;;5060048;28;20333;-68
2021/01/11 04:50:04;;;;;;;3.42;1.83;;;-2.40;60.10;;;;;;5059456;28;20025;-68
2021/01/11 04:52:32;;;;;;;2.67;1.38;;;-2.40;59.90;;;;;;5059291;28;20059;-68
2021/01/11 04:55:01;;;;;;;2.08;1.20;;;-2.30;58.30;;;;;;5059603;28;20033;-68
2021/01/11 04:57:33;;;;;;;1.67;1.00;;;-2.20;59.20;;;;;;5059367;28;20363;-69
2021/01/11 05:00:05;;;;;;;2.78;1.25;;;-2.20;56.50;;;;;;5059409;28;20024;-68
2021/01/11 05:02:31;;;;;;;3.50;1.48;;;-2.20;57.30;;;;;;5059213;28;20338;-68
2021/01/11 05:04:57;;;;;;;2.90;1.50;;;-2.20;56.70;;;;;;5059267;28;20104;-69
2021/01/11 05:07:23;;;;;;;1.80;1.40;;;-2.20;58.10;;;;;;5059155;28;20056;-68
2021/01/11 05:09:49;;;;;;;2.13;1.23;;;-2.20;57.70;;;;;;5059157;28;20032;-68
2021/01/11 05:12:15;;;;;;;3.20;1.77;;;-2.20;56.90;;;;;;5058971;28;20029;-68
2021/01/11 05:14:42;;;;;;;1.95;1.40;;;-2.20;58.50;;;;;;5059215;28;20021;-68
2021/01/11 05:17:10;;;;;;;2.15;1.33;;;-2.30;58.60;;;;;;5059374;28;20032;-68
2021/01/11 05:19:36;;;;;;;2.60;1.58;;;-2.30;58.90;;;;;;5058835;28;20124;-68
2021/01/11 05:22:02;;;;;;;2.75;1.20;;;-2.30;59.00;;;;;;5059163;28;20024;-69
2021/01/11 05:24:35;;;;;;;2.55;2.00;;;-2.40;60.40;;;;;;5058659;28;20325;-68
2021/01/11 05:27:05;;;;;;;2.03;1.40;;;-2.50;60.40;;;;;;5058645;28;20095;-68
2021/01/11 05:29:31;;;;;;;3.38;1.50;;;-2.50;59.90;;;;;;5058735;28;20049;-68
2021/01/11 05:32:02;;;;;;;2.47;1.38;;;-2.50;60.30;;;;;;5058615;28;20444;-68
2021/01/11 05:34:48;;;;;;;2.17;1.35;;;-2.50;60.00;;;;;;5058580;28;20309;-68
2021/01/11 05:37:32;;;;;;;1.50;1.00;;;-2.50;59.80;;;;;;5059180;28;20021;-68
2021/01/11 05:40:13;;;;;;;2.28;1.38;;;-2.50;59.80;;;;;;5058745;28;20390;-68
2021/01/11 05:42:40;;;;;;;1.88;1.30;;;-2.60;60.00;;;;;;5058461;28;20048;-68
2021/01/11 05:45:17;;;;;;;2.42;1.45;;;-2.60;61.00;;;;;;5058687;28;20302;-68
2021/01/11 05:48:05;;;;;;;2.17;1.40;;;-2.50;60.50;;;;;;5058711;28;20104;-69
2021/01/11 05:50:45;;;;;;;3.28;1.45;;;-2.50;61.40;;;;;;5058316;28;20102;-68
2021/01/11 05:53:25;;;;;;;2.97;1.50;;;-2.50;59.90;;;;;;5058485;28;20053;-69
2021/01/11 05:55:53;;;;;;;2.13;1.33;;;-2.40;58.60;;;;;;5058943;28;20313;-68
2021/01/11 05:58:20;;;;;;;2.00;1.33;;;-2.20;57.40;;;;;;5058217;28;20029;-68
2021/01/11 06:00:46;;;;;;;4.78;1.10;;;-2.20;57.00;;;;;;5058436;28;20028;-68
2021/01/11 06:03:12;;;;;;;4.50;1.20;;;-2.10;56.70;;;;;;5058388;28;20021;-68
2021/01/11 06:05:39;;;;;;;1.95;1.35;;;-2.00;56.50;;;;;;5057994;28;20061;-68
2021/01/11 06:08:07;;;;;;;1.83;1.20;;;-1.90;56.20;;;;;;5058252;28;20020;-68
2021/01/11 06:10:34;;;;;;;4.35;1.13;;;-1.90;55.70;;;;;;5057973;28;20349;-68
2021/01/11 06:13:00;;;;;;;1.60;1.10;;;-1.80;55.30;;;;;;5057860;28;20481;-68
2021/01/11 06:15:28;;;;;;;2.38;1.33;;;-1.70;55.30;;;;;;5057837;28;20071;-68
2021/01/11 06:17:56;;;;;;;1.92;1.20;;;-1.70;54.80;;;;;;5058076;28;20067;-68
2021/01/11 06:20:24;;;;;;;9.25;1.73;;;-1.60;55.00;;;;;;5056660;28;20025;-68
2021/01/11 06:22:50;;;;;;;1.77;1.10;;;-1.60;54.70;;;;;;5057689;28;20416;-68
2021/01/11 06:25:24;;;;;;;1.95;1.30;;;-1.60;54.90;;;;;;5056405;28;20041;-69
2021/01/11 06:28:01;;;;;;;2.08;1.25;;;-1.60;55.20;;;;;;5057961;28;20033;-68
2021/01/11 06:30:46;;;;;;;1.75;1.10;;;-1.70;55.10;;;;;;5057625;28;20236;-69
2021/01/11 06:33:26;;;;;;;1.95;1.20;;;-1.70;55.00;;;;;;5057797;28;20322;-69
2021/01/11 06:35:54;;;;;;;2.55;1.50;;;-1.70;55.20;;;;;;5057687;28;20032;-69
2021/01/11 06:38:22;;;;;;;2.03;1.45;;;-1.70;55.80;;;;;;5057608;28;20025;-68
2021/01/11 06:41:02;;;;;;;2.22;1.30;;;-1.70;55.30;;;;;;5057610;28;20108;-68
2021/01/11 06:43:49;;;;;;;3.45;1.95;;;-1.70;55.30;;;;;;5057286;28;20075;-68
2021/01/11 06:46:30;;;;;;;2.80;1.33;;;-1.80;55.70;;;;;;5055745;28;20025;-68
2021/01/11 06:49:02;;;;;;;3.22;1.40;;;-1.90;56.20;;;;;;5057232;28;20029;-68
2021/01/11 06:51:42;;;;;;;2.30;1.20;;;-1.90;55.20;;;;;;5057130;28;20074;-68
2021/01/11 06:54:10;;;;;;;2.10;1.20;;;-1.80;54.50;;;;;;5057313;28;20040;-68
2021/01/11 06:56:40;;;;;;;1.50;1.13;;;-1.70;54.00;;;;;;5057643;28;20305;-68
2021/01/11 06:59:16;;;;;;;1.75;1.30;;;-1.60;54.50;;;;;;5057283;28;20405;-68
2021/01/11 07:01:42;;;;;;;2.90;1.55;;;-1.60;54.60;;;;;;5055997;28;20029;-68
2021/01/11 07:04:31;;;;;;;1.50;1.20;;;-1.60;54.60;;;;;;5056373;28;20033;-68
2021/01/11 07:07:00;;;;;;;2.17;1.33;;;-1.60;54.10;;;;;;5056757;28;20047;-68
2021/01/11 07:09:26;;;;;;;2.28;1.30;;;-1.70;54.70;;;;;;5056987;28;20029;-68
2021/01/11 07:11:53;;;;;;;4.70;1.40;;;-1.70;54.50;;;;;;5056995;28;20074;-68
2021/01/11 07:14:21;;;;;;;2.55;1.55;;;-1.60;54.40;;;;;;5056698;28;20401;-68
2021/01/11 07:16:52;;;;;;;2.38;1.38;;;-1.50;53.70;;;;;;5056844;28;20035;-68
2021/01/11 07:19:42;;;;;;;1.88;1.23;;;-1.50;54.10;;;;;;5057113;28;20017;-68
2021/01/11 07:22:10;;;;;;;1.90;1.25;;;-1.60;54.10;;;;;;5057045;28;20021;-68
2021/01/11 07:24:45;;;;;;;1.92;1.15;;;-1.60;54.80;;;;;;5056501;28;20038;-68
2021/01/11 07:27:11;;;;;;;2.35;1.52;;;-1.70;54.60;;;;;;5056629;28;20057;-68
2021/01/11 07:29:36;;;;;;;2.35;1.15;;;-1.70;54.10;;;;;;5056654;28;20082;-68
2021/01/11 07:32:03;;;;;;;2.05;1.20;;;-1.60;53.70;;;;;;5056536;28;20026;-68
2021/01/11 07:34:28;;;;;;;2.13;1.13;;;-1.50;53.50;;;;;;5056281;28;20494;-69
2021/01/11 07:36:56;;;;;;;1.52;1.05;;;-1.40;52.90;;;;;;5056619;28;20100;-68
2021/01/11 07:39:25;;;;;;;1.65;1.10;;;-1.40;53.00;;;;;;5056815;28;20020;-68
2021/01/11 07:41:55;;;;;;;1.55;1.02;;;-1.30;52.70;;;;;;5056560;28;20052;-68
2021/01/11 07:44:26;;;;;;;1.95;1.10;;;-1.30;52.20;;;;;;5056403;28;20044;-68
2021/01/11 07:46:52;;;;;;;2.83;0.80;;;-1.20;51.80;;;;;;5056544;28;20029;-68
2021/01/11 07:49:18;;;;;;;1.58;1.00;;;-1.10;51.60;;;;;;5056423;28;20029;-68
2021/01/11 07:51:48;;;;;;;1.58;1.13;;;-1.10;51.40;;;;;;5056396;28;20025;-68
2021/01/11 07:54:20;;;;;;;2.28;1.20;;;-1.10;51.20;;;;;;5056452;28;20097;-68
2021/01/11 07:56:48;;;;;;;1.88;1.20;;;-1.20;52.20;;;;;;5056736;28;20028;-68
2021/01/11 07:59:14;;;;;;;1.65;1.15;;;-1.30;52.00;;;;;;5055325;28;20025;-68
2021/01/11 08:01:43;;;;;;;1.52;0.90;;;-1.30;52.60;;;;;;5056370;28;20027;-68
2021/01/11 08:04:11;;;;;;;1.80;1.13;;;-1.30;51.90;;;;;;5056260;28;20104;-68
2021/01/11 08:07:10;;;;;;;1.88;1.25;;;-1.20;51.80;;;;;;5056386;28;20041;-68
2021/01/11 08:09:38;;;;;;;1.33;1.00;;;-1.20;51.70;;;;;;5055091;28;20325;-68
2021/01/11 08:12:17;;;;;;;1.48;1.02;;;-1.20;51.90;;;;;;5056404;28;20108;-68
2021/01/11 08:14:46;;;;;;;1.45;1.10;;;-1.20;52.70;;;;;;5056434;28;20075;-68
2021/01/11 08:17:20;;;;;;;2.08;1.25;;;-1.10;52.20;;;;;;5059336;28;20013;-68
2021/01/11 08:19:53;;;;;;;1.60;1.15;;;-1.00;52.40;;;;;;5060064;28;20029;-68
2021/01/11 08:22:20;;;;;;;1.60;1.30;;;-1.00;52.50;;;;;;5060011;28;20075;-68
2021/01/11 08:24:57;;;;;;;4.80;1.10;;;-0.90;52.00;;;;;;5059895;28;20033;-68
2021/01/11 08:27:43;;;;;;;1.33;1.02;;;-0.90;52.30;;;;;;5058663;28;20140;-68
2021/01/11 08:30:11;;;;;;;1.63;1.10;;;-0.90;51.80;;;;;;5059978;28;20337;-68
2021/01/11 08:32:39;;;;;;;1.45;1.00;;;-0.80;52.30;;;;;;5059980;28;20108;-69
2021/01/11 08:35:13;;;;;;;1.63;1.05;;;-0.80;53.00;;;;;;5059986;28;20044;-69
2021/01/11 08:37:39;;;;;;;1.92;1.33;;;-0.80;52.80;;;;;;5059739;28;20066;-68
2021/01/11 08:40:33;;;;;;;2.50;1.70;;;-0.80;53.40;;;;;;5059678;28;20025;-69
2021/01/11 08:43:09;;;;;;;2.05;1.38;;;-0.90;54.60;;;;;;5059844;28;20032;-69
2021/01/11 08:45:40;;;;;;;3.05;1.80;;;-1.00;55.00;;;;;;5059818;28;20112;-69
2021/01/11 08:48:11;;;;;;;3.72;1.77;;;-1.00;55.20;;;;;;5059608;28;20014;-69
2021/01/11 08:50:39;;;;;;;2.85;1.60;;;-1.00;55.00;;;;;;5059793;28;20360;-68
2021/01/11 08:53:38;;;;;;;3.40;1.60;;;-1.00;55.60;;;;;;5059376;28;20070;-69
2021/01/11 08:56:09;;;;;;;4.78;1.92;;;-1.00;56.10;;;;;;5047076;28;20037;-69
2021/01/11 08:58:46;;;;;;;2.72;1.77;;;-1.00;57.10;;;;;;5059334;28;20049;-68
2021/01/11 09:01:16;;;;;;;3.15;2.00;;;-1.00;56.00;;;;;;5059894;28;20064;-68
2021/01/11 09:03:47;;;;;;;4.10;2.10;;;-1.00;56.20;;;;;;5059334;28;20326;-69
2021/01/11 09:06:43;;;;;;;3.83;2.08;;;-0.90;56.60;;;;;;5059222;28;20039;-68
2021/01/11 09:09:17;;;;;;;2.95;1.70;;;-0.90;56.20;;;;;;5059436;28;20033;-69
2021/01/11 09:11:44;;;;;;;2.60;1.80;;;-0.80;56.30;;;;;;5059034;28;20053;-68
2021/01/11 09:14:18;;;;;;;2.53;1.75;;;-0.70;55.70;;;;;;5059175;28;20017;-69
2021/01/11 09:16:54;;;;;;;3.28;1.80;;;-0.50;56.50;;;;;;5059337;28;20027;-69
2021/01/11 09:19:22;;;;;;;3.75;2.22;;;-0.30;55.50;;;;;;5059185;28;20032;-68
2021/01/11 09:22:14;;;;;;;2.70;1.67;;;-0.10;55.40;;;;;;5058966;28;20029;-68
2021/01/11 09:24:44;;;;;;;2.95;2.03;;;0.10;54.00;;;;;;5058893;28;20021;-68
2021/01/11 09:27:11;;;;;;;2.72;1.83;;;0.20;53.60;;;;;;5058123;28;20111;-69
2021/01/11 09:29:37;;;;;;;3.15;1.65;;;0.30;52.80;;;;;;5058869;28;20032;-69
2021/01/11 09:32:04;;;;;;;3.15;2.40;;;0.40;52.60;;;;;;5058630;28;20079;-69
2021/01/11 09:34:30;;;;;;;5.50;2.75;;;0.60;54.80;;;;;;5058811;28;20406;-69
2021/01/11 09:36:55;;;;;;;3.63;2.42;;;0.80;55.10;;;;;;5058652;28;20032;-69
2021/01/11 09:39:21;;;;;;;3.22;2.30;;;1.10;53.40;;;;;;5058581;28;20017;-68
2021/01/11 09:41:53;;;;;;;3.33;2.08;;;1.20;52.60;;;;;;5058606;28;20029;-69
2021/01/11 09:44:20;;;;;;;5.55;2.72;;;1.40;52.30;;;;;;5058424;28;20417;-68
2021/01/11 09:46:49;;;;;;;4.82;2.10;;;1.50;52.00;;;;;;5058491;28;20032;-69
2021/01/11 09:49:15;;;;;;;3.78;2.72;;;1.60;52.30;;;;;;5057361;28;20078;-68
2021/01/11 09:51:41;;;;;;;6.05;2.65;;;2.20;52.10;;;;;;5058302;28;20114;-68
2021/01/11 09:54:08;;;;;;;3.67;2.45;;;2.80;50.80;;;;;;5058483;28;20317;-69
2021/01/11 09:56:38;;;;;;;4.15;2.30;;;3.50;48.90;;;;;;5058237;28;20029;-69
2021/01/11 09:59:08;;;;;;;3.70;2.40;;;4.20;47.10;;;;;;5058217;28;20091;-69
2021/01/11 10:01:37;;;;;;;6.43;2.47;;;4.30;48.10;;;;;;5057154;28;20040;-69
2021/01/11 10:04:04;;;;;;;3.13;2.35;;;5.20;46.30;;;;;;5058160;28;20027;-69
2021/01/11 10:06:41;;;;;;;5.05;2.42;;;6.00;43.90;;;;;;5058008;28;20043;-69
2021/01/11 10:09:08;;;;;;;3.10;2.45;;;6.40;43.10;;;;;;5052337;28;20032;-69
2021/01/11 10:11:33;;;;;;;3.30;2.22;;;6.10;42.70;;;;;;5046953;28;20112;-69
2021/01/11 10:13:59;;;;;;;2.70;1.98;;;5.50;43.20;;;;;;5037949;28;20377;-69
2021/01/11 10:16:25;;;;;;;3.63;2.17;;;6.00;43.00;;;;;;5037919;28;20009;-69
2021/01/11 10:18:50;;;;;;;3.40;2.60;;;6.40;42.90;;;;;;5037850;28;20029;-69
2021/01/11 10:21:16;;;;;;;2.85;2.28;;;6.30;42.00;;;;;;5036755;28;20033;-69
2021/01/11 10:23:42;;;;;;;2.65;2.10;;;5.70;42.90;;;;;;5038092;28;20032;-69
2021/01/11 10:26:13;;;;;;;4.30;2.20;;;5.00;43.90;;;;;;5037679;28;20338;-69
2021/01/11 10:28:39;;;;;;;3.28;1.98;;;4.50;44.50;;;;;;5036644;28;20120;-69
2021/01/11 10:31:05;;;;;;;2.95;1.95;;;4.00;44.90;;;;;;5037597;28;20474;-69
2021/01/11 10:33:31;;;;;;;3.97;2.22;;;3.70;45.70;;;;;;5037510;28;20434;-69
2021/01/11 10:35:57;;;;;;;3.22;2.30;;;3.90;45.20;;;;;;5037538;28;20032;-69
2021/01/11 10:38:22;;;;;;;3.80;2.78;;;4.80;45.40;;;;;;5036871;28;20100;-69
2021/01/11 10:40:48;;;;;;;3.15;2.03;;;5.60;43.90;;;;;;5037734;28;20024;-69
2021/01/11 10:43:14;;;;;;;3.28;1.80;;;6.60;41.70;;;;;;5037406;28;20091;-69
2021/01/11 10:45:40;;;;;;;3.25;2.28;;;7.50;39.30;;;;;;5037339;28;20358;-69
2021/01/11 10:48:06;;;;;;;2.92;1.80;;;8.10;39.70;;;;;;5037446;28;20314;-67
2021/01/11 10:50:32;;;;;;;3.83;2.00;;;8.20;37.50;;;;;;5037250;28;20441;-67
2021/01/11 10:52:58;;;;;;;2.80;1.98;;;8.70;37.40;;;;;;5037140;28;20033;-69
2021/01/11 10:55:23;;;;;;;2.35;1.80;;;9.00;38.30;;;;;;5037067;28;20330;-67
2021/01/11 10:57:49;;;;;;;2.63;1.77;;;9.20;39.00;;;;;;5036164;28;20410;-69
2021/01/11 11:00:18;;;;;;;2.30;1.98;;;9.50;36.60;;;;;;5037124;28;20151;-69
2021/01/11 11:02:44;;;;;;;1.90;1.70;;;9.40;36.20;;;;;;5037248;28;20314;-67
2021/01/11 11:05:10;;;;;;;2.40;1.90;;;9.30;36.10;;;;;;5037101;28;20017;-67
2021/01/11 11:07:38;;;;;;;3.40;2.30;;;9.40;36.00;;;;;;5037353;28;20038;-67
2021/01/11 11:10:06;;;;;;;3.30;2.35;;;9.50;36.30;;;;;;5037031;28;20020;-67
2021/01/11 11:12:32;;;;;;;2.75;1.95;;;9.60;37.50;;;;;;5037147;28;20108;-69
2021/01/11 11:14:59;;;;;;;2.70;1.65;;;9.90;36.50;;;;;;5036848;28;20444;-69
2021/01/11 11:17:28;;;;;;;3.08;2.03;;;10.00;35.40;;;;;;5036898;28;20018;-69
2021/01/11 11:19:54;;;;;;;4.85;1.70;;;9.80;35.30;;;;;;5036974;28;20021;-69
2021/01/11 11:22:20;;;;;;;2.50;1.88;;;9.90;34.80;;;;;;5036867;28;20079;-69
2021/01/11 11:24:45;;;;;;;3.30;1.83;;;9.80;34.50;;;;;;5036828;28;20404;-69
2021/01/11 11:27:11;;;;;;;4.53;2.20;;;9.70;35.60;;;;;;5036647;28;20053;-69
2021/01/11 11:29:37;;;;;;;2.22;1.98;;;9.80;35.10;;;;;;5036754;28;20048;-69
2021/01/11 11:32:03;;;;;;;2.70;2.00;;;9.60;35.00;;;;;;5037101;28;20429;-68
2021/01/11 11:34:30;;;;;;;2.17;1.77;;;9.40;34.90;;;;;;5036803;28;20080;-69
2021/01/11 11:36:56;;;;;;;3.53;1.95;;;8.70;35.80;;;;;;5036704;28;20030;-69
2021/01/11 11:39:22;;;;;;;3.17;2.38;;;8.30;36.70;;;;;;5036682;28;20022;-69
2021/01/11 11:41:48;;;;;;;2.72;1.90;;;8.50;36.70;;;;;;5036743;28;20433;-69
2021/01/11 11:44:15;;;;;;;2.88;1.98;;;8.60;36.70;;;;;;5036571;28;20023;-69
2021/01/11 11:46:40;;;;;;;4.55;1.58;;;8.70;37.00;;;;;;5035597;28;20029;-69
2021/01/11 11:49:06;;;;;;;2.45;1.60;;;9.00;34.90;;;;;;5036504;28;20410;-69
2021/01/11 11:51:32;;;;;;;2.50;1.40;;;9.40;36.30;;;;;;5040228;28;20025;-69
2021/01/11 11:53:57;;;;;;;2.20;1.63;;;9.70;37.20;;;;;;5040589;28;20022;-69
2021/01/11 11:56:23;;;;;;;2.63;1.90;;;10.00;35.40;;;;;;5040965;28;20341;-69
2021/01/11 11:58:49;;;;;;;2.33;1.80;;;9.90;34.70;;;;;;5039455;28;20029;-69
2021/01/11 12:01:15;;;;;;;3.10;1.90;;;9.80;34.00;;;;;;5040537;28;20322;-69
2021/01/11 12:03:40;;;;;;;2.60;1.80;;;9.50;36.00;;;;;;5040399;28;20032;-69
2021/01/11 12:06:06;;;;;;;2.78;2.00;;;9.50;37.80;;;;;;5040632;28;20025;-69
2021/01/11 12:08:32;;;;;;;2.58;1.85;;;9.50;37.10;;;;;;5040281;28;20036;-69
2021/01/11 12:10:57;;;;;;;2.50;1.88;;;9.50;35.90;;;;;;5040260;28;20033;-69
2021/01/11 12:13:23;;;;;;;4.18;2.13;;;9.40;36.00;;;;;;5040221;28;20022;-69
2021/01/11 12:15:49;;;;;;;2.80;2.08;;;9.20;36.60;;;;;;5040221;28;20025;-69
2021/01/11 12:18:14;;;;;;;3.53;2.33;;;8.90;36.60;;;;;;5040210;28;20322;-69
2021/01/11 12:20:40;;;;;;;2.83;2.13;;;8.70;36.80;;;;;;5040087;28;20026;-69
2021/01/11 12:23:05;;;;;;;3.72;2.15;;;8.50;38.40;;;;;;5040340;28;20030;-69
2021/01/11 12:25:31;;;;;;;4.35;2.40;;;8.30;37.40;;;;;;5040027;28;20104;-69
2021/01/11 12:27:57;;;;;;;2.47;2.05;;;8.10;37.30;;;;;;5039999;28;20029;-69
2021/01/11 12:30:23;;;;;;;2.50;2.00;;;8.00;38.40;;;;;;5039946;28;20323;-69
2021/01/11 12:32:49;;;;;;;4.40;2.00;;;8.10;39.20;;;;;;5040103;28;20060;-69
2021/01/11 12:35:15;;;;;;;2.70;1.75;;;8.00;38.80;;;;;;5039849;28;20426;-69
2021/01/11 12:37:41;;;;;;;2.63;1.92;;;8.10;37.30;;;;;;5040119;28;20104;-69
2021/01/11 12:40:07;;;;;;;3.20;2.08;;;7.90;38.50;;;;;;5039783;28;20112;-69
2021/01/11 12:42:33;;;;;;;2.50;1.73;;;7.90;38.70;;;;;;5039659;28;20032;-69
2021/01/11 12:44:58;;;;;;;3.78;1.90;;;7.80;38.90;;;;;;5038584;28;20025;-69
2021/01/11 12:47:24;;;;;;;2.70;1.92;;;7.80;41.00;;;;;;5039839;28;20025;-69
2021/01/11 12:49:52;;;;;;;2.60;2.08;;;7.80;39.40;;;;;;5039575;28;20037;-69
2021/01/11 12:52:18;;;;;;;3.97;1.90;;;7.80;39.20;;;;;;5039465;28;20021;-69
2021/01/11 12:54:44;;;;;;;2.50;1.90;;;7.70;41.10;;;;;;5039483;28;20029;-69
2021/01/11 12:57:09;;;;;;;4.00;1.98;;;7.50;40.00;;;;;;5039425;28;20116;-69
2021/01/11 12:59:35;;;;;;;3.40;1.92;;;7.30;40.00;;;;;;5038360;28;20029;-69